Martinez, CA (94553)

7:05 PM PDT on April 21, 2015 (GMT -0700)
APRSWXNET | | Change Station
CLOSE
Current Station
Personal Weather Station
Location: Martinez, CA
Elevation: 738 ft
Nearby Weather Stations

Elev 738 ft 37.98 °N, 122.14 °W | Updated 33 minutes ago

Partly Cloudy
Partly Cloudy
54 °F
Feels Like 54 °F
N
11
Wind Variable Wind from SW
Gusts 20.0 mph

Today
High -- | Low -- °F
--% Chance of Precip.
Yesterday
High -- | Low -- °F
Precip. -- in
6:25 AM 7:50 PM
Waxing Crescent, 14% visible
Pressure 29.79 in
Visibility 10.0 miles
Clouds Clear
Dew Point 49 °F
Humidity 82%
Rainfall in
Snow Depth Not available.
UV 1 out of 12
Pollen 8.10 out of 12
Air Quality Not available.
Flu Activity Sporadic
METAR KCCR 220153Z 20016G21KT 10SM CLR 14/09 A2983 RMK AO2 SLP086 T01440089

More Conditions Fewer Conditions

Pressure 29.79 in
Visibility 10.0 miles
Clouds Clear
Dew Point 49 °F
Humidity 82%
Rainfall in
Snow Depth Not available.
UV 1 out of 12
Pollen 8.10 out of 12
Air Quality Not available.
Flu Activity Sporadic
METAR KCCR 220153Z 20016G21KT 10SM CLR 14/09 A2983 RMK AO2 SLP086 T01440089

More Conditions Fewer Conditions

10-Day Weather Forecast

Almanac

Astronomy

Apr. 21, 2015 Rise Set
Actual Time
Civil Twilight
Nautical Twilight
Astronomical Twilight
Moon
Length of Visible Light
Length of Day
Tomorrow will be .
, % of the Moon is Illuminated

Today's Extremes

State Highs State Lows

Community

WunderPhotos

Upload Photos

1,815,628 photos uploaded!

WunderBlogs® & News

Nearby

Air Quality

  Air Quality AQ Index Pollutant
Not available.

Snow Depth

Station Depth Elevation

Earthquake Activity

City Distance Mag. Time & Date
Minimum magnitude displayed is 2.5.

Coastal Water Temperatures

Place Temperature

Stations

Nearby Weather Stations

Station Location Temp. Windchill Dew Point Humidity Wind Precip. Elev Updated Type